Port Sulphur, LA

8:57 AM CDT on October 02, 2014 (GMT -0500)
Boothville | Change Station
CLOSE
Current Station
Airport
Location: Boothville,
Elevation: 0 ft
Nearby Weather Stations

Elev 0 ft 29.33 °N, 89.41 °W | Updated 6 minutes ago

Clear
Clear
82 °F
Feels Like 92 °F
N
5
Wind Variable Wind from SSE

Today
High -- | Low -- °F
--% Chance of Precip.
Yesterday
High -- | Low -- °F
Precip. -- in
6:52 AM 6:43 PM
First Quarter, 59% visible
Pressure 30.01 in
Visibility 10.0 miles
Clouds Clear
Heat Index 92 °F
Dew Point 79 °F
Humidity 90%
Rainfall 0.00 in
Snow Depth Not available.
UV 2 out of 12
Pollen 6.40 out of 12
Air Quality Not available.
Flu Activity Not available.
METAR KBVE 021351Z AUTO 16004KT 10SM CLR 28/26 A3001 RMK AO2 SLP162 T02780261

More Conditions Fewer Conditions

Pressure 30.01 in
Visibility 10.0 miles
Clouds Clear
Heat Index 92 °F
Dew Point 79 °F
Humidity 90%
Rainfall 0.00 in
Snow Depth Not available.
UV 2 out of 12
Pollen 6.40 out of 12
Air Quality Not available.
Flu Activity Not available.
METAR KBVE 021351Z AUTO 16004KT 10SM CLR 28/26 A3001 RMK AO2 SLP162 T02780261

More Conditions Fewer Conditions

10-Day Weather Forecast

Almanac

Astronomy

Oct. 02, 2014 Rise Set
Actual Time 6:52 AM CDT 6:43 PM CDT
Civil Twilight 6:29 AM CDT 7:07 PM CDT
Nautical Twilight 6:01 AM CDT 7:34 PM CDT
Astronomical Twilight 5:33 AM CDT 8:02 PM CDT
Moon 2:26 PM CDT 12:34 AM CDT
Length of Visible Light 12h 38m
Length of Day
11h 50m
Tomorrow will be 1m 45s shorter.
First Quarter, 59% of the Moon is Illuminated
Today
First Quarter
Oct 8
Full
Oct 15
Last Quarter
Oct 23
New
Oct 30
First Quarter

Today's Extremes

State Highs State Lows

Community

WunderPhotos

Upload Photos

1,758,245 photos uploaded!

WunderBlogs® & News

Nearby

Snow Depth

Station Depth Elevation
No new snow has been reported.

Earthquake Activity

City Distance Mag. Time & Date
No recent earthquake activity has been reported nearby.
Minimum magnitude displayed is 2.5.

Coastal Water Temperatures

Place Temperature
Pilot's Station East, SW Pass, LA 84.9 °F
Grand Isle, LA 81.0 °F
Bayou Gauche, LA 81.0 °F
Shell Beach, LA 75.0 °F

Nearby Weather Stations